sensor_id;sensor_type;location;lat;lon;timestamp;temperature;humidity
8914;DHT22;4492;48.736;9.092;2022-12-18T00:01:57;-10.80;99.90
8914;DHT22;4492;48.736;9.092;2022-12-18T00:04:24;-10.80;99.90
8914;DHT22;4492;48.736;9.092;2022-12-18T00:06:50;-10.80;99.90
8914;DHT22;4492;48.736;9.092;2022-12-18T00:09:16;-10.80;99.90
8914;DHT22;4492;48.736;9.092;2022-12-18T00:11:42;-10.80;99.90
8914;DHT22;4492;48.736;9.092;2022-12-18T00:14:10;-10.80;99.90
8914;DHT22;4492;48.736;9.092;2022-12-18T00:16:36;-10.70;99.90
8914;DHT22;4492;48.736;9.092;2022-12-18T00:19:03;-10.70;99.90
8914;DHT22;4492;48.736;9.092;2022-12-18T00:21:30;-10.70;99.90
8914;DHT22;4492;48.736;9.092;2022-12-18T00:23:57;-10.70;99.90
8914;DHT22;4492;48.736;9.092;2022-12-18T00:26:28;-10.70;99.90
8914;DHT22;4492;48.736;9.092;2022-12-18T00:28:54;-10.70;99.90
8914;DHT22;4492;48.736;9.092;2022-12-18T00:31:24;-10.60;99.90
8914;DHT22;4492;48.736;9.092;2022-12-18T00:33:49;-10.60;99.90
8914;DHT22;4492;48.736;9.092;2022-12-18T00:36:20;-10.30;99.90
8914;DHT22;4492;48.736;9.092;2022-12-18T00:38:47;-10.60;99.90
8914;DHT22;4492;48.736;9.092;2022-12-18T00:41:14;-10.60;99.90
8914;DHT22;4492;48.736;9.092;2022-12-18T00:44:00;-10.60;99.90
8914;DHT22;4492;48.736;9.092;2022-12-18T00:46:26;-10.60;99.90
8914;DHT22;4492;48.736;9.092;2022-12-18T00:48:51;-10.60;99.90
8914;DHT22;4492;48.736;9.092;2022-12-18T00:51:17;-10.50;99.90
8914;DHT22;4492;48.736;9.092;2022-12-18T00:53:43;-10.70;99.90
8914;DHT22;4492;48.736;9.092;2022-12-18T00:56:08;-10.60;99.90
8914;DHT22;4492;48.736;9.092;2022-12-18T00:58:34;-10.60;99.90
8914;DHT22;4492;48.736;9.092;2022-12-18T01:00:59;-10.60;99.90
8914;DHT22;4492;48.736;9.092;2022-12-18T01:03:25;-10.60;99.90
8914;DHT22;4492;48.736;9.092;2022-12-18T01:05:51;-10.60;99.90
8914;DHT22;4492;48.736;9.092;2022-12-18T01:08:16;-10.70;99.90
8914;DHT22;4492;48.736;9.092;2022-12-18T01:10:42;-10.70;99.90
8914;DHT22;4492;48.736;9.092;2022-12-18T01:13:08;-10.70;99.90
8914;DHT22;4492;48.736;9.092;2022-12-18T01:15:34;-10.70;99.90
8914;DHT22;4492;48.736;9.092;2022-12-18T01:17:59;-10.70;99.90
8914;DHT22;4492;48.736;9.092;2022-12-18T01:20:25;-10.70;99.90
8914;DHT22;4492;48.736;9.092;2022-12-18T01:22:51;-10.70;99.90
8914;DHT22;4492;48.736;9.092;2022-12-18T01:25:16;-10.60;99.90
8914;DHT22;4492;48.736;9.092;2022-12-18T01:27:42;-10.60;99.90
8914;DHT22;4492;48.736;9.092;2022-12-18T01:30:08;-10.10;99.90
8914;DHT22;4492;48.736;9.092;2022-12-18T01:32:33;-10.60;99.90
8914;DHT22;4492;48.736;9.092;2022-12-18T01:34:59;-10.60;99.90
8914;DHT22;4492;48.736;9.092;2022-12-18T01:37:25;-10.60;99.90
8914;DHT22;4492;48.736;9.092;2022-12-18T01:39:52;-10.60;99.90
8914;DHT22;4492;48.736;9.092;2022-12-18T01:42:19;-10.60;99.90
8914;DHT22;4492;48.736;9.092;2022-12-18T01:50:15;-10.60;99.90
8914;DHT22;4492;48.736;9.092;2022-12-18T01:52:51;-10.60;99.90
8914;DHT22;4492;48.736;9.092;2022-12-18T01:55:20;-10.70;99.90
8914;DHT22;4492;48.736;9.092;2022-12-18T01:57:47;-10.60;99.90
8914;DHT22;4492;48.736;9.092;2022-12-18T02:00:17;-10.60;99.90
8914;DHT22;4492;48.736;9.092;2022-12-18T02:02:44;-10.50;99.90
8914;DHT22;4492;48.736;9.092;2022-12-18T02:05:12;-10.40;99.90
8914;DHT22;4492;48.736;9.092;2022-12-18T02:07:51;-10.30;99.90
8914;DHT22;4492;48.736;9.092;2022-12-18T02:10:27;-10.20;99.90
8914;DHT22;4492;48.736;9.092;2022-12-18T02:18:07;-9.80;99.90
8914;DHT22;4492;48.736;9.092;2022-12-18T02:26:03;-9.50;99.90
8914;DHT22;4492;48.736;9.092;2022-12-18T02:28:33;-9.50;99.90
8914;DHT22;4492;48.736;9.092;2022-12-18T02:31:02;-9.40;99.90
8914;DHT22;4492;48.736;9.092;2022-12-18T02:33:29;-9.40;99.90
8914;DHT22;4492;48.736;9.092;2022-12-18T02:35:57;-9.40;99.90
8914;DHT22;4492;48.736;9.092;2022-12-18T02:38:24;-9.40;99.90
8914;DHT22;4492;48.736;9.092;2022-12-18T02:40:51;-9.50;99.90
8914;DHT22;4492;48.736;9.092;2022-12-18T02:43:18;-9.50;99.90
8914;DHT22;4492;48.736;9.092;2022-12-18T02:45:53;-9.60;99.90
8914;DHT22;4492;48.736;9.092;2022-12-18T02:48:30;-9.60;99.90
8914;DHT22;4492;48.736;9.092;2022-12-18T02:51:11;-9.70;99.90
8914;DHT22;4492;48.736;9.092;2022-12-18T02:53:43;-9.70;99.90
8914;DHT22;4492;48.736;9.092;2022-12-18T02:56:24;-9.70;99.90
8914;DHT22;4492;48.736;9.092;2022-12-18T02:59:02;-9.70;99.90
8914;DHT22;4492;48.736;9.092;2022-12-18T03:06:55;-9.60;99.90
8914;DHT22;4492;48.736;9.092;2022-12-18T03:09:29;-9.60;99.90
8914;DHT22;4492;48.736;9.092;2022-12-18T03:12:04;-9.40;99.90
8914;DHT22;4492;48.736;9.092;2022-12-18T03:15:01;-9.50;99.90
8914;DHT22;4492;48.736;9.092;2022-12-18T03:17:31;-9.50;99.90
8914;DHT22;4492;48.736;9.092;2022-12-18T03:20:02;-9.50;99.90
8914;DHT22;4492;48.736;9.092;2022-12-18T03:22:30;-9.60;99.90
8914;DHT22;4492;48.736;9.092;2022-12-18T03:24:58;-9.50;99.90
8914;DHT22;4492;48.736;9.092;2022-12-18T03:27:26;-9.60;99.90
8914;DHT22;4492;48.736;9.092;2022-12-18T03:30:06;-9.60;99.90
8914;DHT22;4492;48.736;9.092;2022-12-18T03:35:29;-9.70;99.90
8914;DHT22;4492;48.736;9.092;2022-12-18T03:37:56;-9.80;99.90
8914;DHT22;4492;48.736;9.092;2022-12-18T03:40:28;-9.80;99.90
8914;DHT22;4492;48.736;9.092;2022-12-18T03:43:05;-9.90;99.90
8914;DHT22;4492;48.736;9.092;2022-12-18T03:45:53;-9.90;99.90
8914;DHT22;4492;48.736;9.092;2022-12-18T03:48:29;-10.00;99.90
8914;DHT22;4492;48.736;9.092;2022-12-18T03:51:00;-10.10;99.90
8914;DHT22;4492;48.736;9.092;2022-12-18T03:56:02;-10.20;99.90
8914;DHT22;4492;48.736;9.092;2022-12-18T03:58:31;-10.20;99.90
8914;DHT22;4492;48.736;9.092;2022-12-18T04:01:01;-10.30;99.90
8914;DHT22;4492;48.736;9.092;2022-12-18T04:03:28;-10.30;99.90
8914;DHT22;4492;48.736;9.092;2022-12-18T04:05:57;-10.40;99.90
8914;DHT22;4492;48.736;9.092;2022-12-18T04:08:25;-10.40;99.90
8914;DHT22;4492;48.736;9.092;2022-12-18T04:10:51;-10.40;99.90
8914;DHT22;4492;48.736;9.092;2022-12-18T04:13:25;-10.50;99.90
8914;DHT22;4492;48.736;9.092;2022-12-18T04:15:53;-10.40;99.90
8914;DHT22;4492;48.736;9.092;2022-12-18T04:18:18;-10.50;99.90
8914;DHT22;4492;48.736;9.092;2022-12-18T04:20:44;-10.40;99.90
8914;DHT22;4492;48.736;9.092;2022-12-18T04:23:10;-10.40;99.90
8914;DHT22;4492;48.736;9.092;2022-12-18T04:25:35;-10.40;99.90
8914;DHT22;4492;48.736;9.092;2022-12-18T04:28:01;-10.30;99.90
8914;DHT22;4492;48.736;9.092;2022-12-18T04:30:27;-10.30;99.90
8914;DHT22;4492;48.736;9.092;2022-12-18T04:32:52;-10.30;99.90
8914;DHT22;4492;48.736;9.092;2022-12-18T04:35:18;-10.30;99.90
8914;DHT22;4492;48.736;9.092;2022-12-18T04:37:43;-10.20;99.90
8914;DHT22;4492;48.736;9.092;2022-12-18T04:40:09;-10.20;99.90
8914;DHT22;4492;48.736;9.092;2022-12-18T04:42:35;-10.20;99.90
8914;DHT22;4492;48.736;9.092;2022-12-18T04:45:01;-10.20;99.90
8914;DHT22;4492;48.736;9.092;2022-12-18T04:47:26;-10.10;99.90
8914;DHT22;4492;48.736;9.092;2022-12-18T04:49:52;-10.00;99.90
8914;DHT22;4492;48.736;9.092;2022-12-18T04:52:17;-9.90;99.90
8914;DHT22;4492;48.736;9.092;2022-12-18T04:54:43;-9.90;99.90
8914;DHT22;4492;48.736;9.092;2022-12-18T04:57:09;-9.90;99.90
8914;DHT22;4492;48.736;9.092;2022-12-18T04:59:35;-10.00;99.90
8914;DHT22;4492;48.736;9.092;2022-12-18T05:02:01;-10.00;99.90
8914;DHT22;4492;48.736;9.092;2022-12-18T05:04:26;-10.40;99.90
8914;DHT22;4492;48.736;9.092;2022-12-18T05:06:52;-10.10;99.90
8914;DHT22;4492;48.736;9.092;2022-12-18T05:09:17;-10.20;99.90
8914;DHT22;4492;48.736;9.092;2022-12-18T05:11:43;-10.30;99.90
8914;DHT22;4492;48.736;9.092;2022-12-18T05:14:09;-10.40;99.90
8914;DHT22;4492;48.736;9.092;2022-12-18T05:16:34;-10.40;99.90
8914;DHT22;4492;48.736;9.092;2022-12-18T05:19:00;-10.50;99.90
8914;DHT22;4492;48.736;9.092;2022-12-18T05:21:25;-10.50;99.90
8914;DHT22;4492;48.736;9.092;2022-12-18T05:23:51;-10.50;99.90
8914;DHT22;4492;48.736;9.092;2022-12-18T05:26:18;-10.50;99.90
8914;DHT22;4492;48.736;9.092;2022-12-18T05:28:44;-10.50;99.90
8914;DHT22;4492;48.736;9.092;2022-12-18T05:31:09;-10.50;99.90
8914;DHT22;4492;48.736;9.092;2022-12-18T05:33:35;-10.60;99.90
8914;DHT22;4492;48.736;9.092;2022-12-18T05:36:03;-10.50;99.90
8914;DHT22;4492;48.736;9.092;2022-12-18T05:38:30;-10.40;99.90
8914;DHT22;4492;48.736;9.092;2022-12-18T05:40:57;-10.30;99.90
8914;DHT22;4492;48.736;9.092;2022-12-18T05:43:24;-10.20;99.90
8914;DHT22;4492;48.736;9.092;2022-12-18T05:45:51;-10.30;99.90
8914;DHT22;4492;48.736;9.092;2022-12-18T05:48:18;-10.30;99.90
8914;DHT22;4492;48.736;9.092;2022-12-18T05:50:45;-10.40;99.90
8914;DHT22;4492;48.736;9.092;2022-12-18T05:53:12;-10.40;99.90
8914;DHT22;4492;48.736;9.092;2022-12-18T05:55:39;-10.50;99.90
8914;DHT22;4492;48.736;9.092;2022-12-18T05:58:07;-10.50;99.90
8914;DHT22;4492;48.736;9.092;2022-12-18T06:00:36;-10.50;99.90
8914;DHT22;4492;48.736;9.092;2022-12-18T06:03:05;-10.50;99.90
8914;DHT22;4492;48.736;9.092;2022-12-18T06:05:41;-10.50;99.90
8914;DHT22;4492;48.736;9.092;2022-12-18T06:08:07;-10.50;99.90
8914;DHT22;4492;48.736;9.092;2022-12-18T06:10:33;-10.50;99.90
8914;DHT22;4492;48.736;9.092;2022-12-18T06:12:59;-10.50;99.90
8914;DHT22;4492;48.736;9.092;2022-12-18T06:15:24;-10.50;99.90
8914;DHT22;4492;48.736;9.092;2022-12-18T06:17:50;-10.50;99.90
8914;DHT22;4492;48.736;9.092;2022-12-18T06:20:16;-10.50;99.90
8914;DHT22;4492;48.736;9.092;2022-12-18T06:22:41;-10.50;99.90
8914;DHT22;4492;48.736;9.092;2022-12-18T06:25:07;-10.50;99.90
8914;DHT22;4492;48.736;9.092;2022-12-18T06:27:33;-10.50;99.90
8914;DHT22;4492;48.736;9.092;2022-12-18T06:30:02;-10.60;99.90
8914;DHT22;4492;48.736;9.092;2022-12-18T06:32:28;-10.60;99.90
8914;DHT22;4492;48.736;9.092;2022-12-18T06:34:53;-10.70;99.90
8914;DHT22;4492;48.736;9.092;2022-12-18T06:37:20;-10.80;99.90
8914;DHT22;4492;48.736;9.092;2022-12-18T06:39:46;-10.90;99.90
8914;DHT22;4492;48.736;9.092;2022-12-18T06:42:11;-11.00;99.90
8914;DHT22;4492;48.736;9.092;2022-12-18T06:44:37;-11.00;99.90
8914;DHT22;4492;48.736;9.092;2022-12-18T06:47:03;-11.00;99.90
8914;DHT22;4492;48.736;9.092;2022-12-18T06:49:29;-11.00;99.90
8914;DHT22;4492;48.736;9.092;2022-12-18T06:51:54;-10.90;99.90
8914;DHT22;4492;48.736;9.092;2022-12-18T06:54:21;-10.90;99.90
8914;DHT22;4492;48.736;9.092;2022-12-18T06:56:47;-10.80;99.90
8914;DHT22;4492;48.736;9.092;2022-12-18T06:59:13;-10.80;99.90
8914;DHT22;4492;48.736;9.092;2022-12-18T07:01:40;-10.70;99.90
8914;DHT22;4492;48.736;9.092;2022-12-18T07:04:05;-10.60;99.90
8914;DHT22;4492;48.736;9.092;2022-12-18T07:06:31;-10.60;99.90
8914;DHT22;4492;48.736;9.092;2022-12-18T07:08:57;-10.60;99.90
8914;DHT22;4492;48.736;9.092;2022-12-18T07:11:22;-10.50;99.90
8914;DHT22;4492;48.736;9.092;2022-12-18T07:13:48;-10.50;99.90
8914;DHT22;4492;48.736;9.092;2022-12-18T07:16:18;-10.50;99.90
8914;DHT22;4492;48.736;9.092;2022-12-18T07:18:44;-10.40;99.90
8914;DHT22;4492;48.736;9.092;2022-12-18T07:21:13;-10.30;99.90
8914;DHT22;4492;48.736;9.092;2022-12-18T07:23:39;-10.10;99.90
8914;DHT22;4492;48.736;9.092;2022-12-18T07:26:07;-10.00;99.90
8914;DHT22;4492;48.736;9.092;2022-12-18T07:28:35;-9.80;99.90
8914;DHT22;4492;48.736;9.092;2022-12-18T07:31:05;-9.60;99.90
8914;DHT22;4492;48.736;9.092;2022-12-18T07:33:33;-9.40;99.90
8914;DHT22;4492;48.736;9.092;2022-12-18T07:35:59;-9.20;99.90
8914;DHT22;4492;48.736;9.092;2022-12-18T07:38:26;-9.10;99.90
8914;DHT22;4492;48.736;9.092;2022-12-18T07:40:51;-9.00;99.90
8914;DHT22;4492;48.736;9.092;2022-12-18T07:43:17;-8.80;99.90
8914;DHT22;4492;48.736;9.092;2022-12-18T07:45:43;-8.80;99.90
8914;DHT22;4492;48.736;9.092;2022-12-18T07:48:09;-8.80;99.90
8914;DHT22;4492;48.736;9.092;2022-12-18T07:50:35;-8.70;99.90
8914;DHT22;4492;48.736;9.092;2022-12-18T07:53:00;-8.70;99.90
8914;DHT22;4492;48.736;9.092;2022-12-18T07:55:29;-8.70;99.90
8914;DHT22;4492;48.736;9.092;2022-12-18T07:57:55;-8.60;99.90
8914;DHT22;4492;48.736;9.092;2022-12-18T08:00:21;-8.50;99.90
8914;DHT22;4492;48.736;9.092;2022-12-18T08:02:47;-8.40;99.90
8914;DHT22;4492;48.736;9.092;2022-12-18T08:05:13;-8.20;99.90
8914;DHT22;4492;48.736;9.092;2022-12-18T08:07:39;-8.10;99.90
8914;DHT22;4492;48.736;9.092;2022-12-18T08:10:05;-8.00;99.90
8914;DHT22;4492;48.736;9.092;2022-12-18T08:12:32;-8.00;99.90
8914;DHT22;4492;48.736;9.092;2022-12-18T08:14:58;-8.00;99.90
8914;DHT22;4492;48.736;9.092;2022-12-18T08:17:24;-8.00;99.90
8914;DHT22;4492;48.736;9.092;2022-12-18T08:19:49;-8.00;99.90
8914;DHT22;4492;48.736;9.092;2022-12-18T08:22:15;-7.90;99.90
8914;DHT22;4492;48.736;9.092;2022-12-18T08:24:40;-7.90;99.90
8914;DHT22;4492;48.736;9.092;2022-12-18T08:27:06;-7.90;99.90
8914;DHT22;4492;48.736;9.092;2022-12-18T08:29:32;-7.80;99.90
8914;DHT22;4492;48.736;9.092;2022-12-18T08:31:59;-7.80;99.90
8914;DHT22;4492;48.736;9.092;2022-12-18T08:34:24;-7.70;99.90
8914;DHT22;4492;48.736;9.092;2022-12-18T08:36:50;-7.60;99.90
8914;DHT22;4492;48.736;9.092;2022-12-18T08:39:16;-7.60;99.90
8914;DHT22;4492;48.736;9.092;2022-12-18T08:41:41;-7.50;99.90
8914;DHT22;4492;48.736;9.092;2022-12-18T08:44:08;-7.40;99.90
8914;DHT22;4492;48.736;9.092;2022-12-18T08:46:52;-7.40;99.90
8914;DHT22;4492;48.736;9.092;2022-12-18T08:49:18;-7.30;99.90
8914;DHT22;4492;48.736;9.092;2022-12-18T08:51:43;-7.20;99.90
8914;DHT22;4492;48.736;9.092;2022-12-18T08:54:11;-7.10;99.90
8914;DHT22;4492;48.736;9.092;2022-12-18T08:56:38;-7.00;99.90
8914;DHT22;4492;48.736;9.092;2022-12-18T08:59:03;-6.90;99.90
8914;DHT22;4492;48.736;9.092;2022-12-18T09:01:29;-6.80;99.90
8914;DHT22;4492;48.736;9.092;2022-12-18T09:03:55;-6.70;99.90
8914;DHT22;4492;48.736;9.092;2022-12-18T09:06:22;-6.50;99.90
8914;DHT22;4492;48.736;9.092;2022-12-18T09:08:48;-6.50;99.90
8914;DHT22;4492;48.736;9.092;2022-12-18T09:11:25;-6.30;99.90
8914;DHT22;4492;48.736;9.092;2022-12-18T09:13:51;-6.30;99.90
8914;DHT22;4492;48.736;9.092;2022-12-18T09:16:17;-6.10;99.90
8914;DHT22;4492;48.736;9.092;2022-12-18T09:18:43;-6.00;99.90
8914;DHT22;4492;48.736;9.092;2022-12-18T09:21:18;-6.00;99.90
8914;DHT22;4492;48.736;9.092;2022-12-18T09:23:52;-5.90;99.90
8914;DHT22;4492;48.736;9.092;2022-12-18T09:26:18;-5.80;99.90
8914;DHT22;4492;48.736;9.092;2022-12-18T09:28:44;-5.70;99.90
8914;DHT22;4492;48.736;9.092;2022-12-18T09:31:11;-5.70;99.90
8914;DHT22;4492;48.736;9.092;2022-12-18T09:33:41;-5.60;99.90
8914;DHT22;4492;48.736;9.092;2022-12-18T09:36:08;-5.50;99.90
8914;DHT22;4492;48.736;9.092;2022-12-18T09:38:35;-5.50;99.90
8914;DHT22;4492;48.736;9.092;2022-12-18T09:41:05;-5.60;99.90
8914;DHT22;4492;48.736;9.092;2022-12-18T09:43:42;-5.50;99.90
8914;DHT22;4492;48.736;9.092;2022-12-18T09:46:15;-5.40;99.90
8914;DHT22;4492;48.736;9.092;2022-12-18T09:48:47;-5.40;99.90
8914;DHT22;4492;48.736;9.092;2022-12-18T09:51:17;-5.30;99.90
8914;DHT22;4492;48.736;9.092;2022-12-18T09:53:53;-5.30;99.90
8914;DHT22;4492;48.736;9.092;2022-12-18T09:56:22;-5.20;99.90
8914;DHT22;4492;48.736;9.092;2022-12-18T09:59:00;-5.20;99.90
8914;DHT22;4492;48.736;9.092;2022-12-18T10:01:28;-5.10;99.90
8914;DHT22;4492;48.736;9.092;2022-12-18T10:03:54;-5.00;99.90
8914;DHT22;4492;48.736;9.092;2022-12-18T10:06:38;-5.00;99.90
8914;DHT22;4492;48.736;9.092;2022-12-18T10:10:03;-5.00;99.90
8914;DHT22;4492;48.736;9.092;2022-12-18T10:18:02;-4.80;99.90
8914;DHT22;4492;48.736;9.092;2022-12-18T10:20:33;-4.70;99.90
8914;DHT22;4492;48.736;9.092;2022-12-18T10:23:12;-4.60;99.90
8914;DHT22;4492;48.736;9.092;2022-12-18T10:26:00;-4.60;99.90
8914;DHT22;4492;48.736;9.092;2022-12-18T10:28:29;-4.50;99.90
8914;DHT22;4492;48.736;9.092;2022-12-18T10:30:56;-4.50;99.90
8914;DHT22;4492;48.736;9.092;2022-12-18T10:33:23;-4.40;99.90
8914;DHT22;4492;48.736;9.092;2022-12-18T10:35:50;-4.50;99.90
8914;DHT22;4492;48.736;9.092;2022-12-18T10:43:36;-4.30;99.90
8914;DHT22;4492;48.736;9.092;2022-12-18T10:51:07;-4.10;99.90
8914;DHT22;4492;48.736;9.092;2022-12-18T10:53:35;-4.10;99.90
8914;DHT22;4492;48.736;9.092;2022-12-18T10:56:03;-4.00;99.90
8914;DHT22;4492;48.736;9.092;2022-12-18T10:58:32;-3.90;99.90
8914;DHT22;4492;48.736;9.092;2022-12-18T11:06:21;-3.60;99.90
8914;DHT22;4492;48.736;9.092;2022-12-18T11:09:22;-3.50;99.90
8914;DHT22;4492;48.736;9.092;2022-12-18T11:11:56;-3.50;99.90
8914;DHT22;4492;48.736;9.092;2022-12-18T11:14:28;-3.40;99.90
8914;DHT22;4492;48.736;9.092;2022-12-18T11:16:55;-3.30;99.90
8914;DHT22;4492;48.736;9.092;2022-12-18T11:19:34;-3.20;99.90
8914;DHT22;4492;48.736;9.092;2022-12-18T11:22:03;-3.10;99.90
8914;DHT22;4492;48.736;9.092;2022-12-18T11:24:42;-3.00;99.90
8914;DHT22;4492;48.736;9.092;2022-12-18T11:27:16;-3.00;99.90
8914;DHT22;4492;48.736;9.092;2022-12-18T11:29:43;-2.90;99.90
8914;DHT22;4492;48.736;9.092;2022-12-18T11:34:46;-3.00;99.90
8914;DHT22;4492;48.736;9.092;2022-12-18T11:37:15;-2.90;99.90
8914;DHT22;4492;48.736;9.092;2022-12-18T11:39:58;-2.90;99.90
8914;DHT22;4492;48.736;9.092;2022-12-18T11:50:24;-2.60;99.90
8914;DHT22;4492;48.736;9.092;2022-12-18T11:52:50;-2.50;99.90
8914;DHT22;4492;48.736;9.092;2022-12-18T12:00:26;-2.40;99.90
8914;DHT22;4492;48.736;9.092;2022-12-18T12:16:12;-2.20;99.90
8914;DHT22;4492;48.736;9.092;2022-12-18T12:21:23;-2.20;99.90
8914;DHT22;4492;48.736;9.092;2022-12-18T12:32:21;-2.40;99.90
8914;DHT22;4492;48.736;9.092;2022-12-18T12:40:00;-2.40;99.90
8914;DHT22;4492;48.736;9.092;2022-12-18T12:42:33;-2.40;99.90
8914;DHT22;4492;48.736;9.092;2022-12-18T12:45:42;-2.40;99.90
8914;DHT22;4492;48.736;9.092;2022-12-18T12:48:39;-2.40;99.90
8914;DHT22;4492;48.736;9.092;2022-12-18T12:51:08;-2.30;99.90
8914;DHT22;4492;48.736;9.092;2022-12-18T12:53:37;-2.10;99.90
8914;DHT22;4492;48.736;9.092;2022-12-18T12:56:04;-2.20;99.90
8914;DHT22;4492;48.736;9.092;2022-12-18T13:04:45;-2.10;99.90
8914;DHT22;4492;48.736;9.092;2022-12-18T13:07:17;-2.10;99.90
8914;DHT22;4492;48.736;9.092;2022-12-18T13:12:56;-2.00;99.90
8914;DHT22;4492;48.736;9.092;2022-12-18T13:20:38;-1.80;99.90
8914;DHT22;4492;48.736;9.092;2022-12-18T13:25:53;-1.80;99.90
8914;DHT22;4492;48.736;9.092;2022-12-18T13:33:39;-1.80;99.90
8914;DHT22;4492;48.736;9.092;2022-12-18T13:36:28;-1.70;99.90
8914;DHT22;4492;48.736;9.092;2022-12-18T13:44:40;-1.80;99.90
8914;DHT22;4492;48.736;9.092;2022-12-18T13:47:27;-1.90;99.90
8914;DHT22;4492;48.736;9.092;2022-12-18T13:49:56;-1.90;99.90
8914;DHT22;4492;48.736;9.092;2022-12-18T13:52:25;-1.90;99.90
8914;DHT22;4492;48.736;9.092;2022-12-18T13:55:00;-1.90;99.90
8914;DHT22;4492;48.736;9.092;2022-12-18T13:57:30;-1.90;99.90
8914;DHT22;4492;48.736;9.092;2022-12-18T13:59:57;-2.00;99.90
8914;DHT22;4492;48.736;9.092;2022-12-18T14:02:26;-2.10;99.90
8914;DHT22;4492;48.736;9.092;2022-12-18T14:04:52;-2.20;99.90
8914;DHT22;4492;48.736;9.092;2022-12-18T14:07:26;-2.30;99.90
8914;DHT22;4492;48.736;9.092;2022-12-18T14:09:58;-2.40;99.90
8914;DHT22;4492;48.736;9.092;2022-12-18T14:12:27;-2.50;99.90
8914;DHT22;4492;48.736;9.092;2022-12-18T14:15:32;-2.50;99.90
8914;DHT22;4492;48.736;9.092;2022-12-18T14:20:32;-2.70;99.90
8914;DHT22;4492;48.736;9.092;2022-12-18T14:22:59;-2.80;99.90
8914;DHT22;4492;48.736;9.092;2022-12-18T14:25:27;-2.90;99.90
8914;DHT22;4492;48.736;9.092;2022-12-18T14:30:33;-3.00;99.90
8914;DHT22;4492;48.736;9.092;2022-12-18T14:35:27;-3.00;99.90
8914;DHT22;4492;48.736;9.092;2022-12-18T14:37:52;-3.10;99.90
8914;DHT22;4492;48.736;9.092;2022-12-18T14:40:18;-3.10;99.90
8914;DHT22;4492;48.736;9.092;2022-12-18T14:42:46;-3.20;99.90
8914;DHT22;4492;48.736;9.092;2022-12-18T14:45:35;-3.30;99.90
8914;DHT22;4492;48.736;9.092;2022-12-18T14:50:38;-3.40;99.90
8914;DHT22;4492;48.736;9.092;2022-12-18T14:53:17;-3.50;99.90
8914;DHT22;4492;48.736;9.092;2022-12-18T14:55:46;-3.60;99.90
8914;DHT22;4492;48.736;9.092;2022-12-18T14:58:15;-3.70;99.90
8914;DHT22;4492;48.736;9.092;2022-12-18T15:00:43;-3.80;99.90
8914;DHT22;4492;48.736;9.092;2022-12-18T15:03:09;-3.80;99.90
8914;DHT22;4492;48.736;9.092;2022-12-18T15:05:35;-3.90;99.90
8914;DHT22;4492;48.736;9.092;2022-12-18T15:08:02;-4.00;99.90
8914;DHT22;4492;48.736;9.092;2022-12-18T15:10:32;-4.10;99.90
8914;DHT22;4492;48.736;9.092;2022-12-18T15:20:47;-4.30;99.90
8914;DHT22;4492;48.736;9.092;2022-12-18T15:23:25;-4.40;99.90
8914;DHT22;4492;48.736;9.092;2022-12-18T15:26:08;-4.40;99.90
8914;DHT22;4492;48.736;9.092;2022-12-18T15:36:13;-4.60;99.90
8914;DHT22;4492;48.736;9.092;2022-12-18T15:38:39;-4.60;99.90
8914;DHT22;4492;48.736;9.092;2022-12-18T15:41:05;-4.70;99.90
8914;DHT22;4492;48.736;9.092;2022-12-18T15:43:31;-4.70;99.90
8914;DHT22;4492;48.736;9.092;2022-12-18T15:46:13;-4.80;99.90
8914;DHT22;4492;48.736;9.092;2022-12-18T15:48:43;-4.90;99.90
8914;DHT22;4492;48.736;9.092;2022-12-18T15:51:22;-4.90;99.90
8914;DHT22;4492;48.736;9.092;2022-12-18T15:53:51;-4.90;99.90
8914;DHT22;4492;48.736;9.092;2022-12-18T15:56:17;-4.90;99.90
8914;DHT22;4492;48.736;9.092;2022-12-18T15:59:02;-5.00;99.90
8914;DHT22;4492;48.736;9.092;2022-12-18T16:01:29;-5.00;99.90
8914;DHT22;4492;48.736;9.092;2022-12-18T16:03:55;-5.10;99.90
8914;DHT22;4492;48.736;9.092;2022-12-18T16:06:22;-5.10;99.90
8914;DHT22;4492;48.736;9.092;2022-12-18T16:08:48;-5.20;99.90
8914;DHT22;4492;48.736;9.092;2022-12-18T16:11:27;-5.20;99.90
8914;DHT22;4492;48.736;9.092;2022-12-18T16:14:25;-5.20;99.90
8914;DHT22;4492;48.736;9.092;2022-12-18T16:16:58;-5.30;99.90
8914;DHT22;4492;48.736;9.092;2022-12-18T16:19:25;-5.30;99.90
8914;DHT22;4492;48.736;9.092;2022-12-18T16:21:52;-5.30;99.90
8914;DHT22;4492;48.736;9.092;2022-12-18T16:24:25;-5.20;99.90
8914;DHT22;4492;48.736;9.092;2022-12-18T16:26:51;-5.30;99.90
8914;DHT22;4492;48.736;9.092;2022-12-18T16:29:18;-5.20;99.90
8914;DHT22;4492;48.736;9.092;2022-12-18T16:31:44;-5.20;99.90
8914;DHT22;4492;48.736;9.092;2022-12-18T16:34:30;-5.20;99.90
8914;DHT22;4492;48.736;9.092;2022-12-18T16:36:57;-5.10;99.90
8914;DHT22;4492;48.736;9.092;2022-12-18T16:39:24;-5.10;99.90
8914;DHT22;4492;48.736;9.092;2022-12-18T16:41:50;-5.00;99.90
8914;DHT22;4492;48.736;9.092;2022-12-18T16:44:16;-5.00;99.90
8914;DHT22;4492;48.736;9.092;2022-12-18T16:46:41;-5.00;99.90
8914;DHT22;4492;48.736;9.092;2022-12-18T16:49:14;-4.90;99.90
8914;DHT22;4492;48.736;9.092;2022-12-18T16:51:40;-4.90;99.90
8914;DHT22;4492;48.736;9.092;2022-12-18T16:54:06;-4.90;99.90
8914;DHT22;4492;48.736;9.092;2022-12-18T16:56:32;-4.90;99.90
8914;DHT22;4492;48.736;9.092;2022-12-18T16:58:59;-4.80;99.90
8914;DHT22;4492;48.736;9.092;2022-12-18T17:01:26;-4.80;99.90
8914;DHT22;4492;48.736;9.092;2022-12-18T17:04:05;-4.80;99.90
8914;DHT22;4492;48.736;9.092;2022-12-18T17:06:33;-4.70;99.90
8914;DHT22;4492;48.736;9.092;2022-12-18T17:09:01;-4.70;99.90
8914;DHT22;4492;48.736;9.092;2022-12-18T17:11:29;-4.60;99.90
8914;DHT22;4492;48.736;9.092;2022-12-18T17:13:55;-4.60;99.90
8914;DHT22;4492;48.736;9.092;2022-12-18T17:16:21;-4.50;99.90
8914;DHT22;4492;48.736;9.092;2022-12-18T17:18:48;-4.50;99.90
8914;DHT22;4492;48.736;9.092;2022-12-18T17:21:14;-4.40;99.90
8914;DHT22;4492;48.736;9.092;2022-12-18T17:23:41;-4.40;99.90
8914;DHT22;4492;48.736;9.092;2022-12-18T17:26:08;-4.40;99.90
8914;DHT22;4492;48.736;9.092;2022-12-18T17:28:36;-4.40;99.90
8914;DHT22;4492;48.736;9.092;2022-12-18T17:31:19;-4.40;99.90
8914;DHT22;4492;48.736;9.092;2022-12-18T17:33:45;-4.40;99.90
8914;DHT22;4492;48.736;9.092;2022-12-18T17:36:11;-4.40;99.90
8914;DHT22;4492;48.736;9.092;2022-12-18T17:38:37;-4.40;99.90
8914;DHT22;4492;48.736;9.092;2022-12-18T17:41:04;-4.40;99.90
8914;DHT22;4492;48.736;9.092;2022-12-18T17:43:30;-4.40;99.90
8914;DHT22;4492;48.736;9.092;2022-12-18T17:46:01;-4.40;99.90
8914;DHT22;4492;48.736;9.092;2022-12-18T17:48:27;-4.40;99.90
8914;DHT22;4492;48.736;9.092;2022-12-18T17:50:52;-4.30;99.90
8914;DHT22;4492;48.736;9.092;2022-12-18T17:53:18;-4.30;99.90
8914;DHT22;4492;48.736;9.092;2022-12-18T17:55:45;-4.30;99.90
8914;DHT22;4492;48.736;9.092;2022-12-18T17:58:17;-4.30;99.90
8914;DHT22;4492;48.736;9.092;2022-12-18T18:00:43;-4.30;99.90
8914;DHT22;4492;48.736;9.092;2022-12-18T18:03:08;-4.30;99.90
8914;DHT22;4492;48.736;9.092;2022-12-18T18:05:34;-4.30;99.90
8914;DHT22;4492;48.736;9.092;2022-12-18T18:08:00;-4.30;99.90
8914;DHT22;4492;48.736;9.092;2022-12-18T18:10:25;-4.30;99.90
8914;DHT22;4492;48.736;9.092;2022-12-18T18:12:51;-4.30;99.90
8914;DHT22;4492;48.736;9.092;2022-12-18T18:15:35;-4.30;99.90
8914;DHT22;4492;48.736;9.092;2022-12-18T18:18:01;-4.30;99.90
8914;DHT22;4492;48.736;9.092;2022-12-18T18:20:26;-4.30;99.90
8914;DHT22;4492;48.736;9.092;2022-12-18T18:22:54;-4.30;99.90
8914;DHT22;4492;48.736;9.092;2022-12-18T18:25:20;-4.30;99.90
8914;DHT22;4492;48.736;9.092;2022-12-18T18:27:46;-4.20;99.90
8914;DHT22;4492;48.736;9.092;2022-12-18T18:30:12;-4.20;99.90
8914;DHT22;4492;48.736;9.092;2022-12-18T18:32:38;-4.20;99.90
8914;DHT22;4492;48.736;9.092;2022-12-18T18:35:05;-4.20;99.90
8914;DHT22;4492;48.736;9.092;2022-12-18T18:37:32;-4.20;99.90